Time;durP1;ratioP1;P1;durP2;ratioP2;P2;SDS_P1;SDS_P2;PMS_P1;PMS_P2;Temp;Humidity;BMP_temperature;BMP_pressure;BME280_temperature;BME280_humidity;BME280_pressure;Samples;Min_cycle;Max_cycle;Signal;HPM_P1;HPM_P2
2024/04/08 00:00:39;;;;;;;;;;;15.30;99.90;;;14.36;100.00;97276.53;5429509;26;1921;-70
2024/04/08 00:03:06;;;;;;;;;;;15.20;99.90;;;14.39;100.00;97280.72;5417819;26;1772;-70
2024/04/08 00:05:33;;;;;;;;;;;15.10;99.90;;;14.38;100.00;97266.81;5425299;26;3538;-69
2024/04/08 00:08:01;;;;;;;;;;;15.10;99.90;;;14.38;100.00;97271.22;5428326;26;1547;-70
2024/04/08 00:10:28;;;;;;;;;;;15.00;99.90;;;14.22;100.00;97266.94;5431487;26;1559;-70
2024/04/08 00:12:54;;;;;;;;;;;15.10;99.90;;;14.28;100.00;97268.34;5429097;26;1341;-71
2024/04/08 00:15:21;;;;;;;;;;;15.00;99.90;;;14.14;100.00;97271.81;5426827;26;1570;-70
2024/04/08 00:17:48;;;;;;;;;;;14.90;99.90;;;14.24;100.00;97266.88;5426868;26;1722;-69
2024/04/08 00:20:15;;;;;;;;;;;14.80;99.90;;;14.17;100.00;97269.00;5427088;26;2253;-70
2024/04/08 00:22:44;;;;;;;;;;;14.80;99.90;;;14.13;100.00;97262.31;5423595;26;1737;-70
2024/04/08 00:25:11;;;;;;;;;;;14.80;99.90;;;14.28;100.00;97257.91;5426808;26;1587;-70
2024/04/08 00:27:37;;;;;;;;;;;14.90;99.90;;;14.63;100.00;97244.41;5424165;26;1728;-70
2024/04/08 00:30:05;;;;;;;;;;;15.10;99.90;;;15.13;100.00;97218.53;5425361;26;1666;-70
2024/04/08 00:32:32;;;;;;;;;;;15.30;99.90;;;15.92;100.00;97172.16;5428193;26;2129;-70
2024/04/08 00:34:59;;;;;;;;;;;15.80;99.90;;;15.83;100.00;97160.59;5430100;26;2615;-70
2024/04/08 00:37:26;;;;;;;;;;;16.20;99.90;;;16.10;100.00;97142.91;5428189;26;1675;-70
2024/04/08 00:39:53;;;;;;;;;;;16.40;99.90;;;16.28;100.00;97119.78;5427221;26;1841;-70
2024/04/08 00:42:19;;;;;;;;;;;16.60;99.90;;;16.49;100.00;97120.00;5429955;26;1718;-69
2024/04/08 00:44:46;;;;;;;;;;;16.80;99.90;;;16.74;100.00;97107.69;5397943;26;1875;-70
2024/04/08 00:47:14;;;;;;;;;;;17.00;99.90;;;16.56;100.00;97107.28;5431759;26;1682;-71
2024/04/08 00:49:42;;;;;;;;;;;17.10;99.90;;;16.89;100.00;97080.34;5423043;26;3761;-70
2024/04/08 00:52:12;;;;;;;;;;;17.30;99.90;;;16.90;100.00;97081.16;5396144;26;1587;-70
2024/04/08 00:54:40;;;;;;;;;;;17.40;99.90;;;17.03;100.00;97081.91;5428035;26;1906;-69
2024/04/08 00:57:09;;;;;;;;;;;17.50;99.90;;;16.95;100.00;97097.41;5431933;26;1905;-70
2024/04/08 00:59:35;;;;;;;;;;;17.50;99.90;;;17.19;100.00;97070.25;5421859;26;1841;-70
2024/04/08 01:02:04;;;;;;;;;;;17.60;99.90;;;17.13;100.00;97077.63;5426211;26;1627;-70
2024/04/08 01:04:32;;;;;;;;;;;17.70;99.90;;;17.08;100.00;97074.53;5427195;26;2392;-69
2024/04/08 01:06:59;;;;;;;;;;;17.60;99.90;;;17.06;100.00;97067.72;5422164;26;1689;-70
2024/04/08 01:09:29;;;;;;;;;;;17.70;99.90;;;17.13;100.00;97082.06;5422726;26;1588;-70
2024/04/08 01:11:57;;;;;;;;;;;17.70;99.90;;;16.97;100.00;97076.28;5425495;26;1714;-69
2024/04/08 01:14:24;;;;;;;;;;;17.60;99.90;;;16.93;100.00;97084.41;5424335;26;1599;-69
2024/04/08 01:16:51;;;;;;;;;;;17.60;99.90;;;16.97;100.00;97079.78;5429304;26;1579;-69
2024/04/08 01:19:22;;;;;;;;;;;17.60;99.90;;;17.06;100.00;97088.69;5425664;26;1887;-69
2024/04/08 01:21:50;;;;;;;;;;;17.50;99.90;;;16.93;100.00;97100.13;5424822;26;1603;-70
2024/04/08 01:24:17;;;;;;;;;;;17.50;99.90;;;16.83;100.00;97090.44;5425294;26;1744;-70
2024/04/08 01:26:44;;;;;;;;;;;17.50;99.90;;;16.82;100.00;97088.78;5422021;26;1623;-69
2024/04/08 01:29:11;;;;;;;;;;;17.50;99.90;;;16.72;100.00;97072.91;5427655;26;1589;-70
2024/04/08 01:31:38;;;;;;;;;;;17.40;99.90;;;16.65;100.00;97066.44;5420366;26;3972;-72
2024/04/08 01:34:04;;;;;;;;;;;17.40;99.90;;;16.65;100.00;97079.53;5418786;26;1624;-70
2024/04/08 01:36:31;;;;;;;;;;;17.30;99.90;;;16.76;100.00;97081.34;5424331;26;1608;-69
2024/04/08 01:38:58;;;;;;;;;;;17.40;99.90;;;16.67;100.00;97072.41;5424160;26;1849;-69
2024/04/08 01:41:26;;;;;;;;;;;17.30;99.90;;;16.82;100.00;97052.09;5423361;26;1607;-70
2024/04/08 01:43:53;;;;;;;;;;;17.40;99.90;;;16.77;100.00;97038.50;5426494;26;1603;-70
2024/04/08 01:46:20;;;;;;;;;;;17.40;99.90;;;16.71;100.00;97045.00;5428346;26;2357;-69
2024/04/08 01:48:47;;;;;;;;;;;17.40;99.90;;;16.78;100.00;97063.72;5426674;26;1651;-69
2024/04/08 01:51:14;;;;;;;;;;;17.30;99.90;;;16.77;100.00;97057.66;5418013;26;1596;-70
2024/04/08 01:53:43;;;;;;;;;;;17.30;99.90;;;16.62;100.00;97051.78;5417851;26;1622;-69
2024/04/08 01:56:10;;;;;;;;;;;17.30;99.90;;;16.79;100.00;97053.19;5425365;26;1667;-69
2024/04/08 01:58:37;;;;;;;;;;;17.30;99.90;;;16.72;100.00;97036.22;5425929;26;1837;-70
2024/04/08 02:01:04;;;;;;;;;;;17.30;99.90;;;16.60;100.00;97053.69;5428882;26;2110;-69
2024/04/08 02:03:30;;;;;;;;;;;17.30;99.90;;;16.57;100.00;97053.09;5421408;26;1626;-69
2024/04/08 02:05:57;;;;;;;;;;;17.20;99.90;;;16.57;100.00;97047.84;5424835;26;1675;-70
2024/04/08 02:08:24;;;;;;;;;;;17.30;99.90;;;16.48;100.00;97065.09;5419888;26;1618;-70
2024/04/08 02:10:52;;;;;;;;;;;17.20;99.90;;;16.46;100.00;97072.22;5423445;26;1663;-70
2024/04/08 02:13:19;;;;;;;;;;;17.20;99.90;;;16.48;100.00;97068.53;5422408;26;3831;-70
2024/04/08 02:15:46;;;;;;;;;;;17.20;99.90;;;16.42;100.00;97055.06;5431595;26;1592;-70
2024/04/08 02:18:13;;;;;;;;;;;17.10;99.90;;;16.54;100.00;97058.56;5421675;26;1583;-70
2024/04/08 02:20:41;;;;;;;;;;;17.10;99.90;;;16.54;100.00;97069.88;5429279;26;2171;-69
2024/04/08 02:23:08;;;;;;;;;;;17.20;99.90;;;16.48;100.00;97057.22;5422318;26;1755;-70
2024/04/08 02:25:42;;;;;;;;;;;17.20;99.90;;;16.50;100.00;97045.69;5427904;26;1640;-69
2024/04/08 02:28:09;;;;;;;;;;;17.20;99.90;;;16.48;100.00;97068.53;5404337;26;2052;-69
2024/04/08 02:30:36;;;;;;;;;;;17.20;99.90;;;16.39;100.00;97071.84;5429933;26;1587;-70
2024/04/08 02:33:04;;;;;;;;;;;17.10;99.90;;;16.38;100.00;97070.19;5419410;26;1656;-70
2024/04/08 02:35:34;;;;;;;;;;;17.10;99.90;;;16.31;100.00;97075.03;5428107;26;1606;-70
2024/04/08 02:38:04;;;;;;;;;;;17.10;99.90;;;16.26;100.00;97085.03;5397078;26;1533;-69
2024/04/08 02:40:35;;;;;;;;;;;17.00;99.90;;;16.43;100.00;97082.94;5420844;26;1896;-68
2024/04/08 02:43:03;;;;;;;;;;;17.00;99.90;;;16.34;100.00;97083.63;5427213;26;2349;-69
2024/04/08 02:45:30;;;;;;;;;;;17.00;99.90;;;16.16;100.00;97085.81;5433127;26;1594;-68
2024/04/08 02:47:57;;;;;;;;;;;16.90;99.90;;;16.43;100.00;97065.44;5420123;26;1564;-69
2024/04/08 02:50:25;;;;;;;;;;;17.00;99.90;;;16.37;100.00;97072.91;5428305;26;1656;-68
2024/04/08 02:52:52;;;;;;;;;;;17.00;99.90;;;16.42;100.00;97074.25;5424527;26;1637;-67
2024/04/08 02:55:19;;;;;;;;;;;17.10;99.90;;;16.38;100.00;97074.59;5430396;26;1521;-70
2024/04/08 02:57:45;;;;;;;;;;;17.00;99.90;;;16.31;100.00;97088.13;5425738;26;4202;-70
2024/04/08 03:00:12;;;;;;;;;;;17.00;99.90;;;16.17;100.00;97092.69;5429210;26;2632;-70
2024/04/08 03:02:39;;;;;;;;;;;16.90;99.90;;;16.06;100.00;97090.88;5422695;26;1599;-70
2024/04/08 03:05:06;;;;;;;;;;;16.80;99.90;;;16.07;100.00;97093.38;5429134;26;1607;-70
2024/04/08 03:07:33;;;;;;;;;;;16.80;99.90;;;16.03;100.00;97081.47;5425765;26;1780;-69
2024/04/08 03:10:00;;;;;;;;;;;16.80;99.90;;;15.91;100.00;97078.91;5430105;26;1631;-69
2024/04/08 03:12:27;;;;;;;;;;;16.70;99.90;;;15.86;100.00;97077.44;5426524;26;1632;-71
2024/04/08 03:14:54;;;;;;;;;;;16.70;99.90;;;15.91;100.00;97081.50;5425806;26;2487;-70
2024/04/08 03:17:21;;;;;;;;;;;16.70;99.90;;;15.84;100.00;97086.34;5424816;26;1747;-70
2024/04/08 03:19:51;;;;;;;;;;;16.60;99.90;;;15.82;100.00;97081.22;5425123;26;1841;-70
2024/04/08 03:22:18;;;;;;;;;;;16.60;99.90;;;15.86;100.00;97072.19;5422487;26;1790;-70
2024/04/08 03:24:45;;;;;;;;;;;16.60;99.90;;;15.75;100.00;97068.69;5424461;26;1682;-70
2024/04/08 03:27:12;;;;;;;;;;;16.50;99.90;;;15.75;100.00;97072.13;5433760;26;1643;-70
2024/04/08 03:29:39;;;;;;;;;;;16.50;99.90;;;15.60;100.00;97088.88;5431960;26;1604;-70
2024/04/08 03:32:06;;;;;;;;;;;16.40;99.90;;;15.59;100.00;97076.75;5420281;26;2474;-70
2024/04/08 03:34:35;;;;;;;;;;;16.40;99.90;;;15.40;100.00;97083.28;5427439;26;1632;-70
2024/04/08 03:37:03;;;;;;;;;;;16.30;99.90;;;15.45;100.00;97077.75;5419589;26;1675;-70
2024/04/08 03:39:30;;;;;;;;;;;16.30;99.90;;;15.29;100.00;97085.00;5428725;26;3965;-70
2024/04/08 03:41:57;;;;;;;;;;;16.20;99.90;;;15.23;100.00;97087.06;5429136;26;2633;-70
2024/04/08 03:44:24;;;;;;;;;;;16.10;99.90;;;15.15;100.00;97085.94;5425329;26;1668;-69
2024/04/08 03:46:50;;;;;;;;;;;16.00;99.90;;;15.16;100.00;97087.59;5405863;26;1769;-70
2024/04/08 03:49:17;;;;;;;;;;;15.90;99.90;;;15.05;100.00;97080.50;5426108;26;1600;-70
2024/04/08 03:51:45;;;;;;;;;;;15.90;99.90;;;15.03;100.00;97088.47;5427880;26;1591;-69
2024/04/08 03:54:12;;;;;;;;;;;15.90;99.90;;;15.06;100.00;97092.63;5427141;26;1598;-69
2024/04/08 03:56:39;;;;;;;;;;;15.90;99.90;;;14.96;100.00;97084.59;5431011;26;2065;-69
2024/04/08 03:59:07;;;;;;;;;;;15.90;99.90;;;14.87;100.00;97098.28;5428142;26;1890;-70
2024/04/08 04:01:37;;;;;;;;;;;15.80;99.90;;;14.85;100.00;97097.56;5426030;26;1571;-70
2024/04/08 04:04:04;;;;;;;;;;;15.80;99.90;;;14.75;100.00;97099.09;5422975;26;1675;-70
2024/04/08 04:06:30;;;;;;;;;;;15.70;99.90;;;14.85;100.00;97081.88;5436178;26;1583;-69
2024/04/08 04:08:57;;;;;;;;;;;15.70;99.90;;;14.92;100.00;97093.56;5431007;26;1576;-70
2024/04/08 04:11:25;;;;;;;;;;;15.70;99.90;;;14.91;100.00;97081.44;5426407;26;2420;-70
2024/04/08 04:13:52;;;;;;;;;;;15.70;99.90;;;14.94;100.00;97072.53;5426675;26;1607;-70
2024/04/08 04:16:19;;;;;;;;;;;15.70;99.90;;;14.97;100.00;97067.13;5426469;26;1661;-70
2024/04/08 04:18:46;;;;;;;;;;;15.70;99.90;;;15.14;100.00;97056.34;5422226;26;1894;-69
2024/04/08 04:21:13;;;;;;;;;;;15.70;99.90;;;15.17;100.00;97071.81;5402498;26;1841;-70
2024/04/08 04:23:39;;;;;;;;;;;15.70;99.90;;;15.34;100.00;97068.03;5425816;26;1601;-70
2024/04/08 04:26:07;;;;;;;;;;;15.90;99.90;;;15.16;100.00;97070.13;5426994;26;4169;-70
2024/04/08 04:28:34;;;;;;;;;;;15.90;99.90;;;15.20;100.00;97074.22;5419549;26;1976;-69
2024/04/08 04:31:00;;;;;;;;;;;15.90;99.90;;;15.11;100.00;97074.84;5427077;26;1641;-70
2024/04/08 04:33:30;;;;;;;;;;;15.90;99.90;;;15.11;100.00;97074.03;5434543;26;1516;-70
2024/04/08 04:35:58;;;;;;;;;;;15.80;99.90;;;15.29;100.00;97064.91;5429293;26;1607;-70
2024/04/08 04:38:25;;;;;;;;;;;15.80;99.90;;;15.24;100.00;97056.53;5424481;26;1825;-69
2024/04/08 04:41:02;;;;;;;;;;;16.00;99.90;;;15.33;100.00;97053.28;5429410;26;2304;-70
2024/04/08 04:43:30;;;;;;;;;;;16.00;99.90;;;15.31;100.00;97049.94;5429188;26;1564;-69
2024/04/08 04:45:57;;;;;;;;;;;16.10;99.90;;;15.24;100.00;97065.22;5425072;26;1716;-70
2024/04/08 04:48:25;;;;;;;;;;;16.00;99.90;;;15.33;100.00;97055.91;5424131;26;1564;-69
2024/04/08 04:50:52;;;;;;;;;;;16.10;99.90;;;15.46;100.00;97061.09;5425235;26;1635;-69
2024/04/08 04:53:19;;;;;;;;;;;16.00;99.90;;;15.46;100.00;97058.47;5430283;26;2268;-70
2024/04/08 04:55:53;;;;;;;;;;;16.10;99.90;;;15.42;100.00;97062.28;5421792;26;1505;-70
2024/04/08 04:58:21;;;;;;;;;;;16.10;99.90;;;15.59;100.00;97056.66;5427810;26;2451;-70
2024/04/08 05:00:51;;;;;;;;;;;16.20;99.90;;;15.51;100.00;97052.91;5422560;26;1848;-70
2024/04/08 05:03:18;;;;;;;;;;;16.10;99.90;;;15.52;100.00;97063.28;5436047;26;1528;-70
2024/04/08 05:05:56;;;;;;;;;;;16.10;99.90;;;15.51;100.00;97063.38;5428085;26;1536;-69
2024/04/08 05:08:23;;;;;;;;;;;16.20;99.90;;;15.39;100.00;97065.91;5423213;26;1358;-70
2024/04/08 05:10:51;;;;;;;;;;;16.20;99.90;;;15.46;100.00;97069.78;5422580;26;4053;-70
2024/04/08 05:13:18;;;;;;;;;;;16.20;99.90;;;15.43;100.00;97062.16;5427294;26;1347;-70
2024/04/08 05:15:58;;;;;;;;;;;16.20;99.90;;;15.38;100.00;97066.88;5423472;26;1339;-69
2024/04/08 05:18:25;;;;;;;;;;;16.20;99.90;;;15.29;100.00;97062.28;5422553;26;1351;-70
2024/04/08 05:20:52;;;;;;;;;;;16.10;99.90;;;15.34;100.00;97077.66;5426182;26;1836;-70
2024/04/08 05:23:23;;;;;;;;;;;16.10;99.90;;;15.44;100.00;97081.28;5422178;26;1617;-70
2024/04/08 05:25:50;;;;;;;;;;;16.10;99.90;;;15.29;100.00;97088.44;5431357;26;1230;-70
2024/04/08 05:28:17;;;;;;;;;;;16.10;99.90;;;15.16;100.00;97083.19;5429801;26;2626;-70
2024/04/08 05:30:45;;;;;;;;;;;16.00;99.90;;;15.15;100.00;97089.38;5426526;26;1437;-70
2024/04/08 05:33:12;;;;;;;;;;;16.00;99.90;;;15.12;100.00;97088.75;5426031;26;1315;-70
2024/04/08 05:35:40;;;;;;;;;;;15.90;99.90;;;15.10;100.00;97098.47;5422366;26;2595;-70
2024/04/08 05:38:07;;;;;;;;;;;15.90;99.90;;;15.12;100.00;97102.69;5427400;26;2518;-70
2024/04/08 05:40:35;;;;;;;;;;;15.90;99.90;;;15.10;100.00;97111.53;5435303;26;1841;-70
2024/04/08 05:43:03;;;;;;;;;;;15.90;99.90;;;15.08;100.00;97101.22;5420916;26;1105;-70
2024/04/08 05:45:30;;;;;;;;;;;15.90;99.90;;;15.09;100.00;97097.66;5420719;26;1282;-69
2024/04/08 05:47:57;;;;;;;;;;;15.90;99.90;;;15.13;100.00;97106.13;5429462;26;1012;-70
2024/04/08 05:50:24;;;;;;;;;;;15.90;99.90;;;15.13;100.00;97108.75;5423466;26;1243;-70
2024/04/08 05:52:51;;;;;;;;;;;15.90;99.90;;;15.32;100.00;97105.69;5426501;26;3682;-70
2024/04/08 05:55:18;;;;;;;;;;;15.90;99.90;;;15.43;100.00;97103.16;5427937;26;1591;-70
2024/04/08 05:57:45;;;;;;;;;;;16.00;99.90;;;15.52;100.00;97096.44;5421032;26;1325;-70
2024/04/08 06:00:15;;;;;;;;;;;16.10;99.90;;;15.67;100.00;97092.75;5424811;26;1884;-70
2024/04/08 06:02:42;;;;;;;;;;;16.20;99.90;;;15.67;100.00;97090.16;5427264;26;1403;-70
2024/04/08 06:05:10;;;;;;;;;;;16.30;99.90;;;15.79;100.00;97086.69;5428804;26;1384;-69
2024/04/08 06:07:36;;;;;;;;;;;16.40;99.90;;;15.81;100.00;97091.81;5420795;26;2440;-70
2024/04/08 06:10:04;;;;;;;;;;;16.50;99.90;;;15.79;100.00;97091.09;5403656;26;1381;-71
2024/04/08 06:12:30;;;;;;;;;;;16.50;99.90;;;15.85;100.00;97093.25;5419833;26;1310;-69
2024/04/08 06:14:57;;;;;;;;;;;16.50;99.90;;;15.95;100.00;97081.19;5415114;26;2604;-70
2024/04/08 06:17:24;;;;;;;;;;;16.60;99.90;;;16.01;100.00;97085.97;5427607;26;2684;-69
2024/04/08 06:19:52;;;;;;;;;;;16.60;99.90;;;15.99;100.00;97094.91;5420561;26;1837;-69
2024/04/08 06:22:19;;;;;;;;;;;16.70;99.90;;;16.19;100.00;97096.88;5424468;26;1080;-70
2024/04/08 06:24:46;;;;;;;;;;;16.80;99.90;;;16.27;100.00;97102.41;5425822;26;1226;-70
2024/04/08 06:27:13;;;;;;;;;;;16.80;99.90;;;16.30;100.00;97098.72;5425175;26;1165;-69
2024/04/08 06:29:39;;;;;;;;;;;16.80;99.90;;;16.27;100.00;97110.25;5424199;26;3681;-70
2024/04/08 06:32:07;;;;;;;;;;;16.90;99.90;;;16.26;100.00;97110.34;5401769;26;1135;-70
2024/04/08 06:34:33;;;;;;;;;;;16.90;99.90;;;16.44;100.00;97105.56;5423344;26;1255;-70
2024/04/08 06:37:01;;;;;;;;;;;17.00;99.90;;;16.51;100.00;97098.91;5419632;26;1161;-69
2024/04/08 06:39:28;;;;;;;;;;;17.10;99.90;;;16.38;100.00;97106.84;5427289;26;1261;-70
2024/04/08 06:41:55;;;;;;;;;;;17.10;99.90;;;16.59;100.00;97107.03;5424506;26;1943;-70
2024/04/08 06:44:21;;;;;;;;;;;17.10;99.90;;;16.66;100.00;97100.41;5419784;26;2406;-69
2024/04/08 06:46:49;;;;;;;;;;;;;;;16.82;100.00;97094.88;5418371;26;1304;-69
2024/04/08 06:49:16;;;;;;;;;;;17.40;99.90;;;16.79;100.00;97094.25;5423992;26;2173;-70
2024/04/08 06:51:42;;;;;;;;;;;17.50;99.90;;;16.78;100.00;97095.19;5421814;26;1097;-70
2024/04/08 06:54:10;;;;;;;;;;;17.40;99.90;;;16.84;100.00;97095.59;5421404;26;1245;-69
2024/04/08 06:56:38;;;;;;;;;;;17.50;99.90;;;17.00;100.00;97084.78;5418652;26;2149;-70
2024/04/08 06:59:05;;;;;;;;;;;17.60;99.90;;;17.11;100.00;97082.16;5426030;26;2489;-70
2024/04/08 07:01:33;;;;;;;;;;;17.60;99.90;;;17.16;100.00;97068.69;5424889;26;1846;-69
2024/04/08 07:04:00;;;;;;;;;;;17.80;99.90;;;17.32;100.00;97069.16;5420186;26;1451;-70
2024/04/08 07:06:26;;;;;;;;;;;17.80;99.90;;;17.46;100.00;97060.22;5425784;26;1639;-69
2024/04/08 07:08:53;;;;;;;;;;;18.00;99.90;;;17.69;100.00;97071.50;5429882;26;1435;-70
2024/04/08 07:11:20;;;;;;;;;;;18.10;99.90;;;17.85;100.00;97058.03;5397432;26;1376;-70
2024/04/08 07:13:47;;;;;;;;;;;18.20;99.90;;;17.83;100.00;97059.13;5423026;26;4108;-70
2024/04/08 07:16:14;;;;;;;;;;;18.20;99.90;;;17.91;100.00;97056.72;5422935;26;1312;-70
2024/04/08 07:18:41;;;;;;;;;;;18.50;99.90;;;18.04;100.00;97057.41;5418227;26;2491;-70
2024/04/08 07:21:09;;;;;;;;;;;18.50;99.90;;;17.95;100.00;97037.13;5424462;26;1853;-70
2024/04/08 07:23:36;;;;;;;;;;;18.60;99.90;;;18.11;100.00;97024.41;5426035;26;1320;-70
2024/04/08 07:26:03;;;;;;;;;;;18.70;99.90;;;18.09;100.00;97031.59;5429800;26;1361;-70
2024/04/08 07:28:30;;;;;;;;;;;18.70;99.90;;;18.24;100.00;97041.78;5428191;26;1445;-69
2024/04/08 07:30:57;;;;;;;;;;;18.60;99.90;;;18.11;100.00;97039.31;5424523;26;1399;-70
2024/04/08 07:33:24;;;;;;;;;;;18.60;99.90;;;18.02;100.00;97035.69;5427239;26;2167;-70
2024/04/08 07:35:50;;;;;;;;;;;18.60;99.90;;;18.07;100.00;97028.25;5417493;26;2590;-70
2024/04/08 07:38:17;;;;;;;;;;;18.70;99.90;;;18.23;100.00;97034.88;5423934;26;1356;-67
2024/04/08 07:40:44;;;;;;;;;;;18.70;99.90;;;18.29;100.00;97035.22;5423165;26;2756;-71
2024/04/08 07:43:11;;;;;;;;;;;18.70;99.90;;;18.41;100.00;97028.09;5418769;26;1352;-70
2024/04/08 07:45:40;;;;;;;;;;;18.80;99.90;;;18.34;100.00;97024.31;5422404;26;1402;-70
2024/04/08 07:48:12;;;;;;;;;;;19.00;99.90;;;18.42;100.00;97016.63;5424679;26;1347;-70
2024/04/08 07:50:38;;;;;;;;;;;19.00;99.90;;;18.57;100.00;97017.97;5418293;26;1300;-70
2024/04/08 07:53:05;;;;;;;;;;;19.10;99.90;;;18.67;100.00;97011.94;5421760;26;3817;-69
2024/04/08 07:55:32;;;;;;;;;;;19.20;99.90;;;18.65;100.00;97003.34;5417939;26;2385;-69
2024/04/08 07:58:00;;;;;;;;;;;19.20;99.90;;;18.74;100.00;97008.66;5427005;26;1273;-69
2024/04/08 08:00:27;;;;;;;;;;;19.30;99.90;;;18.65;100.00;97013.84;5426678;26;1845;-69
2024/04/08 08:02:54;;;;;;;;;;;19.30;99.90;;;19.05;100.00;97003.44;5421432;26;1518;-70
2024/04/08 08:05:21;;;;;;;;;;;19.40;99.90;;;19.23;100.00;97001.03;5426705;26;1310;-70
2024/04/08 08:07:48;;;;;;;;;;;19.40;99.90;;;19.26;100.00;97013.91;5427182;26;1562;-70
2024/04/08 08:10:15;;;;;;;;;;;19.60;99.90;;;19.51;100.00;97007.31;5419782;26;2248;-69
2024/04/08 08:12:42;;;;;;;;;;;19.80;99.90;;;19.84;100.00;97008.81;5422144;26;1611;-70
2024/04/08 08:15:09;;;;;;;;;;;20.10;99.90;;;19.93;100.00;97001.03;5429492;26;1398;-69
2024/04/08 08:17:36;;;;;;;;;;;20.30;99.90;;;20.32;100.00;97004.53;5420494;26;1894;-70
2024/04/08 08:20:04;;;;;;;;;;;20.40;99.90;;;20.31;100.00;97012.56;5422959;26;1736;-69
2024/04/08 08:22:31;;;;;;;;;;;20.70;99.90;;;20.23;100.00;97006.19;5417993;26;1857;-70
2024/04/08 08:24:58;;;;;;;;;;;21.00;99.90;;;20.45;100.00;96998.94;5419426;26;2475;-71
2024/04/08 08:27:25;;;;;;;;;;;21.30;99.90;;;20.66;100.00;96996.16;5433953;26;2567;-69
2024/04/08 08:29:52;;;;;;;;;;;21.80;99.90;;;20.72;100.00;96981.56;5424836;26;1362;-70
2024/04/08 08:32:20;;;;;;;;;;;22.30;99.90;;;20.81;100.00;96986.81;5422231;26;1468;-70
2024/04/08 08:34:47;;;;;;;;;;;22.40;99.70;;;20.83;100.00;96978.75;5426748;26;1403;-70
2024/04/08 08:37:14;;;;;;;;;;;22.50;99.50;;;21.23;100.00;96983.75;5423495;26;1444;-70
2024/04/08 08:39:40;;;;;;;;;;;22.80;99.90;;;21.17;100.00;96976.41;5423637;26;1429;-70
2024/04/08 08:42:07;;;;;;;;;;;22.90;98.90;;;21.46;100.00;96964.88;5420357;26;4144;-69
2024/04/08 08:44:35;;;;;;;;;;;22.70;98.50;;;21.32;100.00;96963.53;5432982;26;1375;-70
2024/04/08 08:47:02;;;;;;;;;;;23.00;98.70;;;22.34;100.00;96950.00;5420633;26;1487;-71
2024/04/08 08:49:29;;;;;;;;;;;22.90;98.90;;;22.64;100.00;96947.88;5426904;26;1363;-71
2024/04/08 08:51:56;;;;;;;;;;;22.90;98.70;;;21.86;100.00;96955.72;5423181;26;1590;-70
2024/04/08 08:54:23;;;;;;;;;;;23.00;97.60;;;21.74;100.00;96957.75;5429854;26;1289;-71
2024/04/08 08:56:50;;;;;;;;;;;23.00;98.00;;;22.29;100.00;96959.41;5426902;26;2165;-70
2024/04/08 08:59:17;;;;;;;;;;;23.40;98.50;;;22.02;100.00;96947.09;5430303;26;2536;-70
2024/04/08 09:01:44;;;;;;;;;;;23.50;97.40;;;22.84;100.00;96943.22;5420552;26;1842;-70
2024/04/08 09:04:14;;;;;;;;;;;23.90;98.00;;;22.68;100.00;96953.72;5431738;26;1360;-69
2024/04/08 09:06:53;;;;;;;;;;;23.40;96.90;;;22.23;100.00;96960.84;5389888;26;1385;-70
2024/04/08 09:09:20;;;;;;;;;;;23.60;96.70;;;22.04;100.00;96964.47;5419431;26;1328;-69
2024/04/08 09:11:50;;;;;;;;;;;23.60;96.10;;;22.83;100.00;96948.66;5426462;26;2412;-71
2024/04/08 09:14:17;;;;;;;;;;;23.30;95.80;;;23.10;100.00;96939.72;5429102;26;1583;-70
2024/04/08 09:16:48;;;;;;;;;;;23.30;96.70;;;22.70;100.00;96947.28;5425682;26;1464;-69
2024/04/08 09:19:15;;;;;;;;;;;23.10;95.70;;;22.39;100.00;96957.47;5422679;26;1326;-70
2024/04/08 09:21:42;;;;;;;;;;;23.20;96.00;;;22.77;100.00;96945.66;5418778;26;1840;-69
2024/04/08 09:24:09;;;;;;;;;;;23.00;95.30;;;22.44;100.00;96943.78;5424895;26;1478;-70
2024/04/08 09:26:39;;;;;;;;;;;23.10;95.30;;;22.74;100.00;96934.56;5423256;26;3779;-69
2024/04/08 09:29:06;;;;;;;;;;;22.80;96.20;;;22.19;100.00;96943.63;5417223;26;1466;-70
2024/04/08 09:31:33;;;;;;;;;;;22.40;96.40;;;21.96;100.00;96947.69;5423888;26;1352;-69
2024/04/08 09:33:59;;;;;;;;;;;22.30;96.50;;;22.03;100.00;96960.16;5421363;26;1486;-69
2024/04/08 09:36:27;;;;;;;;;;;22.40;96.40;;;21.74;100.00;96959.56;5422388;26;1355;-70
2024/04/08 09:38:56;;;;;;;;;;;22.10;97.40;;;21.58;100.00;96973.44;5428536;26;1506;-70
2024/04/08 09:41:23;;;;;;;;;;;22.00;97.00;;;21.60;100.00;96982.88;5393994;26;2400;-70
2024/04/08 09:43:50;;;;;;;;;;;22.10;97.30;;;22.54;100.00;96961.22;5415117;26;1675;-69
2024/04/08 09:46:17;;;;;;;;;;;22.40;97.20;;;22.42;100.00;96946.63;5415898;26;1372;-70
2024/04/08 09:48:44;;;;;;;;;;;22.70;96.40;;;22.92;100.00;96940.63;5432812;26;1358;-69
2024/04/08 09:51:13;;;;;;;;;;;23.10;95.80;;;23.43;100.00;96935.38;5425778;26;1348;-69
2024/04/08 09:53:40;;;;;;;;;;;23.60;96.00;;;22.98;100.00;96910.03;5414391;26;2253;-70
2024/04/08 09:56:16;;;;;;;;;;;24.00;93.90;;;23.71;100.00;96927.97;5419567;26;1373;-69
2024/04/08 09:58:55;;;;;;;;;;;24.30;94.90;;;23.54;100.00;96905.09;5426199;26;1579;-70
2024/04/08 10:01:22;;;;;;;;;;;24.40;93.30;;;23.71;100.00;96895.34;5419743;26;1845;-69
2024/04/08 10:03:51;;;;;;;;;;;24.20;92.70;;;24.22;100.00;96882.75;5426939;26;1469;-70
2024/04/08 10:06:18;;;;;;;;;;;24.30;93.30;;;24.42;100.00;96873.44;5420318;26;1447;-70
2024/04/08 10:08:47;;;;;;;;;;;24.60;93.10;;;24.64;100.00;96855.19;5398817;26;3680;-70
2024/04/08 10:11:15;;;;;;;;;;;24.70;93.00;;;25.41;100.00;96842.03;5430756;26;1571;-70
2024/04/08 10:13:48;;;;;;;;;;;25.40;92.60;;;24.75;100.00;96849.50;5421040;26;1459;-69
2024/04/08 10:16:16;;;;;;;;;;;;;;;24.33;100.00;96844.47;5423409;26;1378;-69
2024/04/08 10:18:53;;;;;;;;;;;25.10;91.00;;;24.01;100.00;96856.78;5423774;26;1587;-70
2024/04/08 10:21:21;;;;;;;;;;;24.80;91.30;;;24.72;100.00;96849.00;5430404;26;1841;-70
2024/04/08 10:23:51;;;;;;;;;;;24.30;91.20;;;24.99;100.00;96847.72;5422027;26;2157;-70
2024/04/08 10:26:18;;;;;;;;;;;24.30;91.90;;;24.99;100.00;96839.75;5420605;26;1415;-70
2024/04/08 10:28:45;;;;;;;;;;;24.20;91.30;;;24.35;100.00;96845.94;5426884;26;1376;-70
2024/04/08 10:31:12;;;;;;;;;;;24.40;90.80;;;24.66;100.00;96839.09;5417919;26;1383;-69
2024/04/08 10:33:39;;;;;;;;;;;24.10;90.10;;;24.35;100.00;96826.56;5418062;26;1397;-70
2024/04/08 10:36:06;;;;;;;;;;;24.30;89.70;;;24.44;100.00;96830.84;5414732;26;2269;-69
2024/04/08 10:38:33;;;;;;;;;;;24.50;90.60;;;25.45;100.00;96803.50;5424832;26;1342;-70
2024/04/08 10:41:07;;;;;;;;;;;24.40;90.20;;;24.99;100.00;96784.81;5424383;26;1461;-70
2024/04/08 10:43:35;;;;;;;;;;;24.30;87.20;;;24.89;100.00;96805.47;5429465;26;1345;-71
2024/04/08 10:46:02;;;;;;;;;;;24.20;89.80;;;24.15;100.00;96834.06;5392615;26;1358;-70
2024/04/08 10:48:29;;;;;;;;;;;24.10;87.90;;;24.38;100.00;96807.63;5421565;26;1449;-69
2024/04/08 10:50:59;;;;;;;;;;;24.10;87.20;;;24.60;100.00;96809.56;5418546;26;4088;-70
2024/04/08 10:53:26;;;;;;;;;;;24.60;88.80;;;24.91;100.00;96792.03;5427816;26;2506;-70
2024/04/08 10:55:53;;;;;;;;;;;24.90;87.80;;;24.39;100.00;96790.75;5429364;26;2700;-70
2024/04/08 10:58:20;;;;;;;;;;;25.20;85.70;;;24.66;100.00;96812.56;5414893;26;2577;-70
2024/04/08 11:00:47;;;;;;;;;;;25.40;85.60;;;24.43;100.00;96814.09;5418966;26;1843;-70
2024/04/08 11:03:14;;;;;;;;;;;25.10;85.90;;;24.47;100.00;96811.09;5424862;26;1848;-70
2024/04/08 11:05:41;;;;;;;;;;;25.10;86.50;;;24.73;100.00;96802.91;5423956;26;1541;-69
2024/04/08 11:08:08;;;;;;;;;;;25.40;85.60;;;24.86;100.00;96797.00;5419045;26;1245;-70
2024/04/08 11:10:35;;;;;;;;;;;25.50;82.90;;;25.00;100.00;96780.38;5391176;26;1426;-69
2024/04/08 11:13:02;;;;;;;;;;;25.00;83.30;;;25.09;100.00;96797.03;5409514;26;2314;-70
2024/04/08 11:15:29;;;;;;;;;;;25.30;84.10;;;25.05;100.00;96797.41;5424741;26;1331;-69
2024/04/08 11:17:57;;;;;;;;;;;25.70;84.90;;;25.37;100.00;96789.44;5429302;26;1400;-70